Time;durP1;ratioP1;P1;durP2;ratioP2;P2;SDS_P1;SDS_P2;PMS_P1;PMS_P2;Temp;Humidity;BMP_temperature;BMP_pressure;BME280_temperature;BME280_humidity;BME280_pressure;Samples;Min_cycle;Max_cycle;Signal;HPM_P1;HPM_P2
2022/08/20 00:02:12;;;;;;;;;2.50;2.50;;;;;19.26;65.57;101702.38;5090415;27;50782;-72
2022/08/20 00:04:37;;;;;;;;;2.00;2.00;;;;;19.10;65.59;101684.63;5090211;27;49841;-73
2022/08/20 00:07:03;;;;;;;;;3.25;3.25;;;;;19.22;65.82;101708.63;5072017;27;49918;-73
2022/08/20 00:09:28;;;;;;;;;1.25;1.25;;;;;19.07;65.79;101687.28;5090475;27;49765;-74
2022/08/20 00:11:53;;;;;;;;;4.50;1.50;;;;;19.03;65.88;101672.22;5089956;27;56809;-73
2022/08/20 00:14:18;;;;;;;;;3.00;3.00;;;;;19.08;66.45;101694.41;5090337;27;49756;-73
2022/08/20 00:16:44;;;;;;;;;2.00;2.00;;;;;19.12;66.47;101707.72;5090141;27;49679;-74
2022/08/20 00:19:09;;;;;;;;;2.00;2.00;;;;;19.10;66.57;101697.94;5090683;27;49664;-73
2022/08/20 00:21:35;;;;;;;;;5.00;3.00;;;;;19.06;66.42;101701.50;5089998;27;49846;-73
2022/08/20 00:24:01;;;;;;;;;2.75;2.00;;;;;18.91;66.42;101672.19;5090036;27;49813;-72
2022/08/20 00:26:27;;;;;;;;;2.75;2.75;;;;;19.00;66.48;101691.72;5090120;27;49827;-73
2022/08/20 00:28:52;;;;;;;;;4.25;3.00;;;;;19.00;66.71;101704.13;5092319;27;50028;-74
2022/08/20 00:31:20;;;;;;;;;5.25;4.00;;;;;18.97;66.82;101701.47;5093280;27;49962;-74
2022/08/20 00:33:46;;;;;;;;;5.00;3.75;;;;;18.91;66.85;101691.72;5093839;27;49840;-74
2022/08/20 00:36:14;;;;;;;;;2.00;2.00;;;;;18.86;67.37;101697.03;5093806;27;50030;-73
2022/08/20 00:38:41;;;;;;;;;4.00;3.00;;;;;18.89;67.79;101704.13;5094014;27;50279;-73
2022/08/20 00:41:11;;;;;;;;;4.25;4.25;;;;;18.77;67.72;101686.38;5093402;27;50522;-73
2022/08/20 00:43:40;;;;;;;;;3.50;2.50;;;;;18.84;67.83;101720.09;5087035;27;49904;-73
2022/08/20 00:46:11;;;;;;;;;4.25;3.00;;;;;18.76;67.79;101691.69;5093130;27;50000;-74
2022/08/20 00:48:40;;;;;;;;;2.25;2.25;;;;;18.71;68.15;101682.81;5093777;27;50086;-74
2022/08/20 00:51:12;;;;;;;;;3.25;3.00;;;;;18.38;68.08;101625.09;5093354;27;50993;-72
2022/08/20 00:53:38;;;;;;;;;3.00;3.00;;;;;18.67;68.21;101675.72;5074850;27;49921;-73
2022/08/20 00:56:07;;;;;;;;;3.50;3.50;;;;;18.69;68.37;101684.59;5093382;27;49693;-72
2022/08/20 00:58:34;;;;;;;;;2.00;2.00;;;;;18.59;68.52;101680.97;5075026;27;49589;-70
2022/08/20 01:01:00;;;;;;;;;2.00;2.00;;;;;18.58;68.68;101679.22;5092899;27;51728;-71
2022/08/20 01:03:25;;;;;;;;;4.00;2.00;;;;;18.66;68.71;101693.44;5092864;27;49751;-72
2022/08/20 01:05:51;;;;;;;;;2.75;2.50;;;;;18.62;68.73;101699.59;5093242;27;49691;-70
2022/08/20 01:08:20;;;;;;;;;5.75;5.00;;;;;18.60;68.73;101693.41;5093506;27;50237;-72
2022/08/20 01:10:48;;;;;;;;;3.00;2.00;;;;;18.57;68.89;101694.28;5092826;27;49891;-73
2022/08/20 01:13:19;;;;;;;;;2.00;2.00;;;;;18.53;69.20;101694.28;5093130;27;49883;-72
2022/08/20 01:15:47;;;;;;;;;5.25;5.00;;;;;18.44;69.34;101680.97;5092732;27;49745;-73
2022/08/20 01:18:17;;;;;;;;;2.25;2.25;;;;;18.49;69.30;101687.16;5074833;27;49649;-72
2022/08/20 01:20:48;;;;;;;;;3.00;3.00;;;;;18.42;69.37;101686.25;5092734;27;51671;-71
2022/08/20 01:23:52;;;;;;;;;2.75;2.00;;;;;18.46;69.58;101689.81;5092489;27;49899;-70
2022/08/20 01:26:23;;;;;;;;;4.00;2.50;;;;;18.43;69.64;101695.09;5093150;27;49763;-71
2022/08/20 01:28:57;;;;;;;;;5.25;5.00;;;;;18.27;69.64;101668.50;5093070;27;49807;-72
2022/08/20 01:31:26;;;;;;;;;2.75;2.00;;;;;18.38;69.65;101686.25;5092379;27;50700;-71
2022/08/20 01:33:54;;;;;;;;;2.00;2.00;;;;;18.13;69.89;101648.94;5092846;27;49721;-72
2022/08/20 01:36:23;;;;;;;;;2.25;2.25;;;;;18.27;69.96;101684.44;5092947;27;49918;-71
2022/08/20 01:38:49;;;;;;;;;5.75;3.00;;;;;18.31;70.13;101696.84;5092374;27;49737;-72
2022/08/20 01:41:26;;;;;;;;;2.25;1.75;;;;;18.28;70.03;101704.81;5092456;27;50530;-72
2022/08/20 01:43:55;;;;;;;;;2.25;2.25;;;;;18.25;70.04;101707.47;5092505;27;49886;-71
2022/08/20 01:46:39;;;;;;;;;3.50;3.50;;;;;18.00;70.21;101671.91;5092403;27;50073;-72
2022/08/20 01:49:19;;;;;;;;;3.00;3.00;;;;;18.20;70.14;101703.88;5092972;27;50050;-72
2022/08/20 01:51:45;;;;;;;;;4.50;3.75;;;;;18.18;70.10;101708.31;5092223;27;51688;-72
2022/08/20 01:54:11;;;;;;;;;3.00;3.00;;;;;18.14;70.21;101711.81;5092309;27;49790;-72
2022/08/20 01:57:09;;;;;;;;;5.00;3.75;;;;;18.12;70.38;101718.03;5092319;27;49743;-72
2022/08/20 01:59:34;;;;;;;;;5.00;3.25;;;;;18.10;70.37;101719.78;5091901;27;49683;-71
2022/08/20 02:02:01;;;;;;;;;2.50;2.50;;;;;17.92;70.41;101691.34;5092321;27;49920;-72
2022/08/20 02:04:27;;;;;;;;;3.50;2.25;;;;;18.06;70.50;101712.69;5091660;27;49978;-72
2022/08/20 02:06:56;;;;;;;;;3.00;3.00;;;;;18.05;70.36;101710.88;5088363;27;49761;-72
2022/08/20 02:09:21;;;;;;;;;5.00;4.25;;;;;17.98;70.49;101708.22;5092246;27;49899;-73
2022/08/20 02:11:47;;;;;;;;;4.25;4.00;;;;;17.82;70.44;101727.59;5091813;27;49773;-73
2022/08/20 02:14:14;;;;;;;;;5.25;2.25;;;;;17.87;70.30;101712.59;5091880;27;49569;-72
2022/08/20 02:16:42;;;;;;;;;6.75;3.75;;;;;17.91;70.43;101725.00;5091819;27;50040;-73
2022/08/20 02:19:15;;;;;;;;;6.00;4.50;;;;;17.84;70.14;101716.97;5091765;27;50261;-73
2022/08/20 02:21:46;;;;;;;;;3.00;3.00;;;;;17.87;70.41;101728.53;5091381;27;50265;-72
2022/08/20 02:24:11;;;;;;;;;3.00;3.00;;;;;17.82;70.02;101724.94;5091726;27;49812;-73
2022/08/20 02:26:40;;;;;;;;;5.00;5.00;;;;;17.78;70.38;101730.22;5091945;27;49736;-74
2022/08/20 02:29:08;;;;;;;;;4.25;3.00;;;;;17.77;70.24;101723.16;5091856;27;49741;-73
2022/08/20 02:31:35;;;;;;;;;3.50;3.50;;;;;17.75;70.39;101725.75;5091128;27;49882;-73
2022/08/20 02:34:03;;;;;;;;;3.50;3.50;;;;;17.56;70.25;101694.63;5091027;27;49797;-72
2022/08/20 02:36:28;;;;;;;;;4.00;4.00;;;;;17.61;70.01;101715.03;5091554;27;49891;-72
2022/08/20 02:38:54;;;;;;;;;3.00;3.00;;;;;17.70;70.56;101728.41;5091422;27;49881;-72
2022/08/20 02:41:21;;;;;;;;;8.25;4.00;;;;;17.64;70.58;101719.47;5091299;27;51468;-72
2022/08/20 02:43:50;;;;;;;;;3.75;2.75;;;;;17.53;70.71;101706.13;5091361;27;49834;-72
2022/08/20 02:46:17;;;;;;;;;4.75;3.50;;;;;17.64;70.45;101723.00;5090790;27;50003;-71
2022/08/20 02:48:42;;;;;;;;;2.00;1.75;;;;;17.65;70.68;101731.88;5091378;27;49844;-72
2022/08/20 02:51:08;;;;;;;;;2.50;2.50;;;;;17.54;70.81;101715.84;5090212;27;50658;-72
2022/08/20 02:53:37;;;;;;;;;3.50;3.50;;;;;17.59;70.79;101735.38;5090424;27;50078;-72
2022/08/20 02:56:07;;;;;;;;;2.25;2.25;;;;;17.58;70.91;101730.94;5090846;27;49707;-73
2022/08/20 02:58:34;;;;;;;;;6.00;3.25;;;;;17.50;70.80;101723.81;5090841;27;49898;-71
2022/08/20 03:01:00;;;;;;;;;2.00;2.00;;;;;17.44;70.76;101722.84;5090412;27;50707;-72
2022/08/20 03:03:25;;;;;;;;;2.50;2.25;;;;;17.54;71.08;101737.09;5090804;27;49828;-72
2022/08/20 03:05:53;;;;;;;;;2.75;2.75;;;;;17.52;70.92;101737.97;5090323;27;49954;-72
2022/08/20 03:08:19;;;;;;;;;3.00;3.00;;;;;17.44;71.24;101724.63;5088480;27;49788;-72
2022/08/20 03:10:45;;;;;;;;;5.50;4.00;;;;;17.46;71.29;101726.41;5091131;27;50330;-70
2022/08/20 03:13:13;;;;;;;;;2.75;2.75;;;;;17.37;71.46;101721.06;5091062;27;49873;-71
2022/08/20 03:15:42;;;;;;;;;5.00;4.25;;;;;17.41;71.63;101729.91;5090681;27;49806;-72
2022/08/20 03:18:07;;;;;;;;;4.00;3.75;;;;;17.33;71.67;101724.53;5091328;27;49952;-71
2022/08/20 03:20:33;;;;;;;;;4.00;3.00;;;;;17.22;71.79;101701.44;5090735;27;51016;-71
2022/08/20 03:22:58;;;;;;;;;5.00;3.25;;;;;17.36;71.75;101726.31;5090618;27;49710;-71
2022/08/20 03:25:24;;;;;;;;;2.00;2.00;;;;;17.31;71.82;101725.41;5090980;27;50128;-72
2022/08/20 03:27:50;;;;;;;;;4.50;3.00;;;;;17.33;72.13;101729.84;5090866;27;49876;-70
2022/08/20 03:30:18;;;;;;;;;3.75;2.00;;;;;17.31;71.99;101728.97;5090439;27;50697;-71
2022/08/20 03:32:44;;;;;;;;;4.00;4.00;;;;;17.29;72.38;101727.19;5090881;27;50037;-72
2022/08/20 03:35:12;;;;;;;;;3.75;3.75;;;;;17.26;72.16;101735.97;5090454;27;49882;-71
2022/08/20 03:37:38;;;;;;;;;4.50;3.00;;;;;17.26;72.29;101729.78;5090831;27;50016;-71
2022/08/20 03:40:07;;;;;;;;;5.00;4.25;;;;;17.24;72.33;101728.88;5090442;27;50644;-71
2022/08/20 03:42:32;;;;;;;;;5.50;3.75;;;;;17.09;72.51;101727.88;5090431;27;49919;-71
2022/08/20 03:44:58;;;;;;;;;4.25;4.25;;;;;17.16;72.66;101732.34;5089851;27;51700;-71
2022/08/20 03:47:23;;;;;;;;;3.50;3.50;;;;;17.05;72.78;101726.06;5090520;27;49993;-71
2022/08/20 03:49:49;;;;;;;;;8.25;6.00;;;;;17.04;72.68;101718.97;5090449;27;51313;-71
2022/08/20 03:52:16;;;;;;;;;3.50;2.50;;;;;17.13;72.55;101740.28;5090625;27;49794;-72
2022/08/20 03:54:44;;;;;;;;;6.00;5.00;;;;;16.98;72.84;101708.28;5090540;27;49609;-72
2022/08/20 03:57:13;;;;;;;;;6.25;4.75;;;;;17.07;73.07;101740.22;5090758;27;49894;-72
2022/08/20 03:59:39;;;;;;;;;5.00;3.75;;;;;16.84;72.71;101704.63;5090010;27;50338;-72
2022/08/20 04:02:05;;;;;;;;;3.00;3.00;;;;;17.04;72.73;101748.16;5091681;27;49880;-72
2022/08/20 04:04:30;;;;;;;;;2.25;2.00;;;;;16.86;73.04;101718.78;5093506;27;49844;-72
2022/08/20 04:06:55;;;;;;;;;3.00;3.00;;;;;17.01;72.86;101744.59;5093499;27;49759;-72
2022/08/20 04:09:21;;;;;;;;;3.25;3.25;;;;;16.79;72.87;101706.34;5092886;27;58759;-72
2022/08/20 04:11:46;;;;;;;;;3.75;2.75;;;;;16.93;73.04;101747.16;5093545;27;49919;-72
2022/08/20 04:14:12;;;;;;;;;3.50;2.00;;;;;16.81;72.82;101725.84;5093919;27;49855;-72
2022/08/20 04:16:39;;;;;;;;;3.50;3.50;;;;;16.87;72.89;101741.78;5093537;27;49751;-72
2022/08/20 04:19:05;;;;;;;;;3.25;3.25;;;;;16.90;72.84;101738.31;5093012;27;50333;-72
2022/08/20 04:21:34;;;;;;;;;4.25;2.00;;;;;16.74;73.07;101730.16;5092837;27;49597;-72
2022/08/20 04:24:01;;;;;;;;;3.00;3.00;;;;;16.68;72.89;101723.88;5093487;27;50076;-74
2022/08/20 04:26:26;;;;;;;;;4.00;3.75;;;;;16.81;73.21;101739.09;5094038;27;49920;-72
2022/08/20 04:28:54;;;;;;;;;3.00;3.00;;;;;16.65;73.00;101729.16;5093155;27;50595;-72
2022/08/20 04:31:20;;;;;;;;;1.25;1.00;;;;;16.77;72.91;101743.44;5093761;27;49666;-73
2022/08/20 04:33:45;;;;;;;;;2.75;1.75;;;;;16.76;72.60;101748.75;5093192;27;49838;-73
2022/08/20 04:36:12;;;;;;;;;0.50;0.50;;;;;16.74;72.90;101750.50;5093410;27;49801;-74
2022/08/20 04:38:38;;;;;;;;;3.75;3.00;;;;;16.68;72.93;101746.00;5092436;27;49795;-71
2022/08/20 04:41:04;;;;;;;;;2.50;2.00;;;;;16.57;72.72;101729.94;5093120;27;49716;-73
2022/08/20 04:43:34;;;;;;;;;4.00;2.00;;;;;16.52;72.76;101721.06;5092949;27;49997;-72
2022/08/20 04:46:08;;;;;;;;;5.00;3.00;;;;;16.68;72.66;101747.72;5093196;27;49936;-73
2022/08/20 04:48:37;;;;;;;;;4.25;3.25;;;;;16.67;72.90;101743.31;5092176;27;49985;-72
2022/08/20 04:51:03;;;;;;;;;4.50;4.25;;;;;16.48;72.96;101719.22;5069788;27;49824;-72
2022/08/20 04:53:29;;;;;;;;;3.25;1.50;;;;;16.50;72.98;101728.09;5092717;27;50071;-73
2022/08/20 04:55:58;;;;;;;;;5.50;4.00;;;;;16.60;73.09;101751.19;5092994;27;49572;-72
2022/08/20 04:58:29;;;;;;;;;2.00;2.00;;;;;16.62;72.73;101750.31;5091976;27;49914;-73
2022/08/20 05:00:57;;;;;;;;;4.00;2.00;;;;;16.56;72.86;101737.88;5085345;27;50065;-72
2022/08/20 05:03:24;;;;;;;;;2.00;2.00;;;;;16.62;72.61;101755.63;5092097;27;50187;-72
2022/08/20 05:05:50;;;;;;;;;2.50;2.50;;;;;16.44;72.94;101728.03;5092924;27;50118;-73
2022/08/20 05:08:18;;;;;;;;;2.00;2.00;;;;;16.57;73.00;101761.75;5093312;27;49679;-72
2022/08/20 05:10:44;;;;;;;;;3.00;2.00;;;;;16.59;72.73;101770.59;5092385;27;49819;-72
2022/08/20 05:13:10;;;;;;;;;2.50;2.50;;;;;16.36;72.35;101735.00;5091868;27;49824;-73
2022/08/20 05:15:37;;;;;;;;;3.50;3.50;;;;;16.47;72.67;101754.56;5092728;27;50094;-72
2022/08/20 05:18:06;;;;;;;;;3.50;1.75;;;;;16.41;72.72;101741.25;5092914;27;50440;-72
2022/08/20 05:20:37;;;;;;;;;2.25;2.25;;;;;16.38;72.53;101737.66;5092793;27;49837;-72
2022/08/20 05:23:03;;;;;;;;;4.50;3.25;;;;;16.40;72.72;101742.09;5092662;27;49789;-73
2022/08/20 05:25:30;;;;;;;;;4.00;4.00;;;;;16.56;72.58;101765.28;5093051;27;49943;-72
2022/08/20 05:28:01;;;;;;;;;2.00;2.00;;;;;16.49;72.45;101746.63;5092695;27;50892;-72
2022/08/20 05:30:32;;;;;;;;;2.00;2.00;;;;;16.48;72.26;101743.06;5092376;27;49909;-72
2022/08/20 05:33:02;;;;;;;;;2.75;2.00;;;;;16.63;72.39;101760.06;5092540;27;49690;-72
2022/08/20 05:35:28;;;;;;;;;2.00;2.00;;;;;16.55;72.75;101759.97;5086105;27;49723;-73
2022/08/20 05:37:56;;;;;;;;;3.50;2.50;;;;;16.72;72.33;101781.41;5085809;27;49869;-72
2022/08/20 05:40:22;;;;;;;;;3.75;3.25;;;;;16.49;72.18;101742.19;5092522;27;49816;-72
2022/08/20 05:42:48;;;;;;;;;3.75;1.75;;;;;16.73;72.17;101783.19;5092302;27;49885;-72
2022/08/20 05:45:15;;;;;;;;;5.25;2.75;;;;;16.72;72.53;101782.31;5091976;27;49990;-72
2022/08/20 05:47:41;;;;;;;;;2.50;2.00;;;;;16.76;72.25;101796.47;5091411;27;50367;-72
2022/08/20 05:50:08;;;;;;;;;4.25;3.00;;;;;16.47;72.12;101736.00;5091906;27;49652;-72
2022/08/20 05:52:34;;;;;;;;;3.00;3.00;;;;;16.82;72.12;101796.56;5092155;27;49975;-72
2022/08/20 05:54:59;;;;;;;;;4.25;3.00;;;;;16.81;72.15;101781.53;5092014;27;49576;-72
2022/08/20 05:57:24;;;;;;;;;3.50;2.00;;;;;16.83;72.09;101787.72;5091804;27;49752;-72
2022/08/20 05:59:50;;;;;;;;;6.00;3.50;;;;;16.86;71.89;101791.28;5091827;27;50050;-72
2022/08/20 06:04:59;;;;;;;;;3.75;3.75;;;;;16.77;71.84;101759.34;5091495;27;50066;-72
2022/08/20 06:07:25;;;;;;;;;6.75;3.00;;;;;16.87;71.73;101778.91;5090776;27;49841;-72
2022/08/20 06:09:50;;;;;;;;;3.00;3.00;;;;;16.84;71.51;101776.25;5091575;27;49644;-72
2022/08/20 06:12:17;;;;;;;;;3.00;3.00;;;;;17.04;71.56;101800.31;5091238;27;49821;-72
2022/08/20 06:14:42;;;;;;;;;5.50;5.50;;;;;17.02;71.65;101794.13;5091107;27;49946;-72
2022/08/20 06:17:13;;;;;;;;;4.00;3.00;;;;;17.00;71.42;101794.13;5091321;27;49982;-72
2022/08/20 06:19:40;;;;;;;;;7.50;7.25;;;;;17.10;70.97;101811.91;5091739;27;49990;-71
2022/08/20 06:22:06;;;;;;;;;3.50;3.50;;;;;17.17;71.03;101811.06;5091873;27;50268;-72
2022/08/20 06:24:31;;;;;;;;;3.75;3.75;;;;;17.19;70.73;101796.97;5091156;27;49969;-72
2022/08/20 06:26:59;;;;;;;;;4.50;3.00;;;;;17.26;70.66;101812.94;5091021;27;50080;-72
2022/08/20 06:29:25;;;;;;;;;5.00;4.00;;;;;17.22;70.30;101808.47;5090595;27;50166;-72
2022/08/20 06:31:50;;;;;;;;;7.50;3.50;;;;;17.19;70.43;101802.28;5091362;27;49968;-72
2022/08/20 06:34:17;;;;;;;;;4.00;4.00;;;;;17.24;70.80;101805.84;5091347;27;49830;-72
2022/08/20 06:36:45;;;;;;;;;7.00;4.00;;;;;17.17;70.56;101791.59;5091588;27;49696;-72
2022/08/20 06:39:10;;;;;;;;;4.50;3.50;;;;;17.27;70.36;101790.81;5091723;27;49849;-72
2022/08/20 06:41:36;;;;;;;;;2.75;2.75;;;;;17.37;70.39;101807.72;5091122;27;50053;-73
2022/08/20 06:44:01;;;;;;;;;4.75;2.75;;;;;17.16;70.16;101771.25;5091217;27;49881;-71
2022/08/20 06:46:26;;;;;;;;;8.00;5.00;;;;;17.48;69.99;101807.84;5090319;27;50622;-71
2022/08/20 06:48:52;;;;;;;;;3.00;3.00;;;;;17.46;70.21;101799.84;5090788;27;62043;-72
2022/08/20 06:51:17;;;;;;;;;4.00;4.00;;;;;17.55;70.02;101814.97;5090826;27;50025;-72
2022/08/20 06:53:43;;;;;;;;;3.25;3.00;;;;;17.57;69.92;101799.97;5091014;27;49861;-72
2022/08/20 06:56:08;;;;;;;;;7.00;4.00;;;;;17.42;69.77;101779.47;5091141;27;51078;-72
2022/08/20 06:58:33;;;;;;;;;6.00;3.75;;;;;17.63;69.59;101798.25;5091414;27;49719;-71
2022/08/20 07:00:59;;;;;;;;;4.75;4.00;;;;;17.32;69.91;101748.41;5090634;27;49669;-72
2022/08/20 07:03:25;;;;;;;;;3.50;2.00;;;;;17.75;69.50;101813.41;5083417;27;49680;-72
2022/08/20 07:05:51;;;;;;;;;3.75;2.75;;;;;17.78;69.41;101816.13;5089486;27;50766;-74
2022/08/20 07:08:17;;;;;;;;;2.00;2.00;;;;;17.77;69.16;101818.75;5090744;27;49826;-72
2022/08/20 07:10:44;;;;;;;;;2.50;2.50;;;;;17.43;69.76;101757.38;5085948;27;50131;-71
2022/08/20 07:13:14;;;;;;;;;5.25;3.50;;;;;17.70;69.81;101800.09;5088531;27;49831;-72
2022/08/20 07:15:40;;;;;;;;;2.25;2.25;;;;;17.83;69.58;101806.41;5085447;27;50351;-72
2022/08/20 07:18:06;;;;;;;;;5.25;4.00;;;;;17.66;69.59;101770.81;5088627;27;49716;-70
2022/08/20 07:20:34;;;;;;;;;5.00;4.00;;;;;17.94;69.38;101802.03;5087589;27;49626;-72
2022/08/20 07:23:00;;;;;;;;;3.75;3.75;;;;;17.99;69.27;101795.00;5089930;27;49767;-68
2022/08/20 07:25:27;;;;;;;;;3.00;3.00;;;;;18.15;68.91;101808.41;5090109;27;50518;-69
2022/08/20 07:27:59;;;;;;;;;5.00;4.00;;;;;17.99;68.67;101775.53;5090831;27;50152;-74
2022/08/20 07:33:13;;;;;;;;;4.00;4.00;;;;;18.15;68.34;101764.13;5090826;27;49621;-75
2022/08/20 07:35:39;;;;;;;;;5.25;4.25;;;;;18.24;68.19;101773.91;5089454;27;50762;-72
2022/08/20 07:38:06;;;;;;;;;4.25;4.25;;;;;18.50;68.02;101805.94;5089169;27;49826;-75
2022/08/20 07:40:33;;;;;;;;;3.75;3.25;;;;;18.68;67.74;101823.78;5085325;27;49834;-67
2022/08/20 07:43:01;;;;;;;;;4.00;4.00;;;;;18.64;67.98;101820.19;5091922;27;49801;-71
2022/08/20 07:45:27;;;;;;;;;2.00;2.00;;;;;18.75;67.67;101831.78;5089647;27;50724;-76
2022/08/20 07:47:53;;;;;;;;;4.75;4.25;;;;;18.53;67.79;101787.34;5089835;27;49825;-77
2022/08/20 07:50:21;;;;;;;;;4.75;3.25;;;;;18.80;67.39;101826.47;5090070;27;49954;-70
2022/08/20 07:52:47;;;;;;;;;4.50;3.50;;;;;18.66;67.66;101806.94;5083871;27;49621;-78
2022/08/20 07:55:15;;;;;;;;;3.00;3.00;;;;;18.88;67.84;101827.41;5090514;27;50882;-68
2022/08/20 07:57:42;;;;;;;;;3.25;3.25;;;;;18.85;67.64;101809.66;5058910;28;49804;-71
2022/08/20 08:00:10;;;;;;;;;3.00;2.75;;;;;19.04;67.70;101828.34;5090163;27;49704;-76
2022/08/20 08:02:35;;;;;;;;;6.75;4.00;;;;;18.94;67.46;101791.97;5089643;27;50235;-77
2022/08/20 08:05:02;;;;;;;;;8.75;4.75;;;;;19.19;67.30;101823.03;5089845;27;50663;-79
2022/08/20 08:07:29;;;;;;;;;1.00;1.00;;;;;19.17;67.37;101808.84;5069855;27;49783;-83
2022/08/20 08:09:55;;;;;;;;;6.75;4.00;;;;;19.21;67.04;101808.00;5089674;27;49817;-70
2022/08/20 08:12:23;;;;;;;;;5.00;4.50;;;;;19.38;67.22;101826.63;5090439;27;49741;-70
2022/08/20 08:14:49;;;;;;;;;5.50;2.00;;;;;19.47;66.78;101829.31;5088773;27;50481;-69
2022/08/20 08:17:17;;;;;;;;;9.00;4.00;;;;;19.54;66.85;101824.88;5089619;27;50146;-63
2022/08/20 08:19:47;;;;;;;;;6.75;2.25;;;;;19.58;66.82;101829.34;5071389;27;49977;-65
2022/08/20 08:22:16;;;;;;;;;3.00;3.00;;;;;19.59;66.31;101824.06;5090237;27;49743;-67
2022/08/20 08:24:43;;;;;;;;;5.75;5.00;;;;;19.50;66.11;101820.47;5089759;27;49873;-75
2022/08/20 08:27:09;;;;;;;;;2.50;2.00;;;;;19.63;66.52;101827.59;5089996;27;49931;-69
2022/08/20 08:29:35;;;;;;;;;7.00;3.00;;;;;19.52;66.62;101797.38;5089369;27;49804;-67
2022/08/20 08:32:03;;;;;;;;;2.50;2.50;;;;;19.53;66.23;101801.81;5089332;27;49983;-79
2022/08/20 08:34:31;;;;;;;;;3.25;2.50;;;;;19.63;66.25;101817.81;5089303;27;51819;-69
2022/08/20 08:36:57;;;;;;;;;3.75;3.75;;;;;19.76;66.13;101834.69;5090317;27;49808;-77
2022/08/20 08:39:23;;;;;;;;;5.50;5.50;;;;;19.68;66.48;101810.69;5090548;27;49801;-73
2022/08/20 08:41:50;;;;;;;;;2.75;1.75;;;;;19.95;66.18;101832.91;5089593;27;50059;-74
2022/08/20 08:44:27;;;;;;;;;5.50;3.25;;;;;20.04;66.35;101829.34;5089397;27;50439;-73
2022/08/20 08:46:57;;;;;;;;;5.75;3.50;;;;;20.10;65.69;101829.34;5095977;27;49690;-73
2022/08/20 08:49:34;;;;;;;;;6.00;3.00;;;;;20.16;65.50;101832.88;5092162;27;50007;-77
2022/08/20 08:52:05;;;;;;;;;3.50;2.50;;;;;20.20;65.52;101831.09;5087163;27;49610;-68
2022/08/20 08:54:32;;;;;;;;;6.25;5.00;;;;;20.16;64.83;101824.88;5093110;27;51461;-74
2022/08/20 08:56:59;;;;;;;;;9.75;6.75;;;;;20.12;64.86;101809.78;5090953;27;49802;-76
2022/08/20 08:59:27;;;;;;;;;3.25;3.25;;;;;20.22;65.20;101819.53;5093103;27;49987;-75
2022/08/20 09:01:55;;;;;;;;;2.00;2.00;;;;;20.27;64.89;101822.22;5096073;27;49838;-66
2022/08/20 09:04:25;;;;;;;;;2.50;2.25;;;;;20.29;64.36;101807.09;5094538;27;49894;-69
2022/08/20 09:06:53;;;;;;;;;7.25;4.25;;;;;20.33;64.28;101805.28;5091616;27;49743;-72
2022/08/20 09:09:25;;;;;;;;;5.75;3.75;;;;;20.46;64.24;101817.72;5090399;27;49900;-74
2022/08/20 09:11:54;;;;;;;;;3.75;1.50;;;;;20.56;63.57;101827.50;5092624;27;49713;-71
2022/08/20 09:14:23;;;;;;;;;6.25;3.00;;;;;20.50;63.41;101812.38;5091820;27;49802;-73
2022/08/20 09:16:55;;;;;;;;;7.25;3.00;;;;;20.65;63.08;101821.22;5090083;27;49650;-73
2022/08/20 09:19:20;;;;;;;;;1.75;1.50;;;;;20.61;62.13;101811.47;5093662;27;49825;-73
2022/08/20 09:21:46;;;;;;;;;5.50;3.00;;;;;20.08;62.43;101720.06;5092775;27;50403;-79
2022/08/20 09:24:14;;;;;;;;;6.75;5.75;;;;;20.78;62.16;101821.16;5092243;27;53764;-74
2022/08/20 09:26:40;;;;;;;;;4.25;3.00;;;;;20.44;61.92;101753.72;5096545;27;49667;-72
2022/08/20 09:29:05;;;;;;;;;3.00;2.75;;;;;20.85;61.10;101819.38;5090185;27;49693;-72
2022/08/20 09:31:31;;;;;;;;;3.00;2.00;;;;;20.88;60.18;101807.78;5093241;27;49854;-74
2022/08/20 09:33:57;;;;;;;;;3.50;3.00;;;;;20.98;59.70;101813.06;5095067;27;50954;-77
2022/08/20 09:36:22;;;;;;;;;3.25;2.00;;;;;20.90;59.80;101797.97;5094232;27;49899;-83
2022/08/20 09:38:48;;;;;;;;;3.00;2.50;;;;;20.70;59.26;101748.28;5090946;27;49867;-83
2022/08/20 09:41:14;;;;;;;;;3.00;1.00;;;;;20.98;58.52;101775.69;5094542;27;49975;-82
2022/08/20 09:43:39;;;;;;;;;5.75;3.50;;;;;20.93;58.38;101764.13;5093939;27;49999;-76
2022/08/20 09:46:04;;;;;;;;;3.50;3.00;;;;;19.99;58.37;101618.81;5092365;27;49952;-74
2022/08/20 09:48:30;;;;;;;;;4.25;2.25;;;;;20.14;59.17;101663.16;5091464;27;49990;-71
2022/08/20 09:50:56;;;;;;;;;2.00;2.00;;;;;20.25;58.02;101659.53;5092859;27;49723;-73
2022/08/20 09:53:22;;;;;;;;;3.50;3.50;;;;;21.01;57.16;101770.31;5090411;27;51895;-70
2022/08/20 09:55:53;;;;;;;;;3.00;1.50;;;;;21.23;56.68;101791.53;5092494;27;49905;-71
2022/08/20 09:58:51;;;;;;;;;5.25;2.00;;;;;21.30;54.82;101783.50;5092899;27;49967;-70
2022/08/20 10:01:19;;;;;;;;;3.75;2.50;;;;;21.13;54.71;101724.88;5083636;27;50054;-70
2022/08/20 10:03:47;;;;;;;;;2.25;2.25;;;;;21.21;54.05;101723.91;5092093;27;50685;-71
2022/08/20 10:06:15;;;;;;;;;1.50;1.50;;;;;21.25;52.06;101715.00;5092352;27;49667;-71
2022/08/20 10:08:40;;;;;;;;;2.50;1.50;;;;;21.41;52.32;101700.63;5092052;27;49859;-78
2022/08/20 10:11:06;;;;;;;;;5.00;2.00;;;;;22.04;52.34;101775.75;5092437;27;49922;-72
2022/08/20 10:13:31;;;;;;;;;3.75;2.50;;;;;21.15;52.32;101594.91;5092571;27;50511;-81
2022/08/20 10:15:57;;;;;;;;;4.00;3.75;;;;;21.71;52.33;101678.97;5093415;27;49944;-78
2022/08/20 10:18:25;;;;;;;;;3.00;2.25;;;;;22.40;52.31;101803.91;5092342;27;49815;-80
2022/08/20 10:20:51;;;;;;;;;2.00;2.00;;;;;22.09;51.16;101763.22;5099031;27;50201;-75
2022/08/20 10:23:16;;;;;;;;;1.25;1.25;;;;;21.84;50.47;101710.91;5092121;27;50782;-77
2022/08/20 10:25:42;;;;;;;;;3.75;2.00;;;;;22.32;49.85;101794.19;5073897;27;49854;-81
2022/08/20 10:28:07;;;;;;;;;2.50;1.50;;;;;22.39;50.01;101787.84;5074013;27;49835;-80
2022/08/20 10:30:37;;;;;;;;;4.00;3.00;;;;;22.39;50.35;101814.59;5086001;27;49583;-81
2022/08/20 10:33:02;;;;;;;;;2.00;1.75;;;;;22.38;50.47;101789.63;5092695;27;50719;-82
2022/08/20 10:35:34;;;;;;;;;1.00;1.00;;;;;22.42;50.45;101785.16;5074155;27;49683;-82
2022/08/20 10:38:02;;;;;;;;;2.75;2.75;;;;;22.17;49.87;101731.06;5094775;27;49861;-82
2022/08/20 10:40:28;;;;;;;;;3.00;3.00;;;;;22.04;49.51;101716.91;5086921;27;49784;-80
2022/08/20 10:42:53;;;;;;;;;2.50;1.50;;;;;21.34;49.71;101603.66;5074818;27;52146;-80
2022/08/20 10:45:19;;;;;;;;;1.75;1.75;;;;;21.84;49.04;101666.34;5085206;27;49582;-72
2022/08/20 10:47:44;;;;;;;;;2.00;2.00;;;;;21.80;48.11;101656.56;5108379;27;49440;-77
2022/08/20 10:50:13;;;;;;;;;3.75;1.75;;;;;21.53;47.14;101620.38;5082859;27;49906;-80
2022/08/20 10:52:49;;;;;;;;;2.25;2.25;;;;;22.52;47.91;101777.00;5098009;27;51214;-83
2022/08/20 10:55:15;;;;;;;;;2.00;2.00;;;;;22.52;46.91;101773.44;5102470;27;49509;-74
2022/08/20 10:57:41;;;;;;;;;3.25;3.25;;;;;22.52;47.41;101774.31;5101089;27;49774;-72
2022/08/20 11:00:09;;;;;;;;;1.50;1.50;;;;;22.38;45.15;101751.31;5098828;27;49702;-65
2022/08/20 11:02:41;;;;;;;;;3.00;2.50;;;;;22.39;46.88;101754.00;5090954;27;50680;-69
2022/08/20 11:05:25;;;;;;;;;4.75;2.75;;;;;22.57;47.88;101779.59;5091433;27;49885;-71
2022/08/20 11:07:51;;;;;;;;;3.50;2.50;;;;;22.24;48.31;101714.03;5091019;27;49920;-70
2022/08/20 11:10:16;;;;;;;;;1.25;0.75;;;;;22.61;46.58;101772.44;5071262;27;49965;-71
2022/08/20 11:12:42;;;;;;;;;4.75;3.75;;;;;22.90;47.63;101782.78;5089516;27;50711;-70
2022/08/20 11:15:08;;;;;;;;;2.00;2.00;;;;;21.83;46.72;101564.81;5090561;27;49994;-70
2022/08/20 11:17:35;;;;;;;;;1.25;1.25;;;;;22.10;46.78;101620.63;5089458;27;49826;-82
2022/08/20 11:20:04;;;;;;;;;2.75;0.75;;;;;23.17;46.58;101787.75;5091086;27;49807;-77
2022/08/20 11:22:30;;;;;;;;;5.50;4.00;;;;;22.50;46.31;101657.53;5072112;27;51822;-77
2022/08/20 11:24:55;;;;;;;;;2.25;2.00;;;;;23.24;45.32;101772.44;5091086;27;49652;-66
2022/08/20 11:27:31;;;;;;;;;3.00;3.00;;;;;23.26;44.45;101763.50;5091320;27;49824;-68
2022/08/20 11:29:57;;;;;;;;;6.25;4.00;;;;;23.25;44.20;101752.78;5089090;27;49940;-63
2022/08/20 11:32:23;;;;;;;;;1.00;1.00;;;;;23.16;44.98;101727.03;5072085;27;52735;-64